createdAt,value
2023-04-05T00:00:54.110Z,2.93
2023-04-05T00:03:24.336Z,3.07
2023-04-05T00:05:54.759Z,3.27
2023-04-05T00:08:26.965Z,3.10
2023-04-05T00:10:54.898Z,2.60
2023-04-05T00:13:22.882Z,2.90
2023-04-05T00:15:50.928Z,3.30
2023-04-05T00:18:23.829Z,3.30
2023-04-05T00:20:53.300Z,3.20
2023-04-05T00:23:22.817Z,3.20
2023-04-05T00:25:50.388Z,3.00
2023-04-05T00:28:17.954Z,3.40
2023-04-05T00:30:45.589Z,2.97
2023-04-05T00:33:13.664Z,2.87
2023-04-05T00:35:41.296Z,2.40
2023-04-05T00:38:10.337Z,3.00
2023-04-05T00:40:38.017Z,3.10
2023-04-05T00:43:05.611Z,3.47
2023-04-05T00:45:33.758Z,3.27
2023-04-05T00:48:01.621Z,3.10
2023-04-05T00:50:30.864Z,2.80
2023-04-05T00:52:58.640Z,3.40
2023-04-05T00:55:27.826Z,3.00
2023-04-05T00:57:56.252Z,3.30
2023-04-05T01:00:24.515Z,2.73
2023-04-05T01:02:53.884Z,3.10
2023-04-05T01:05:30.158Z,3.00
2023-04-05T01:08:01.207Z,3.00
2023-04-05T01:10:36.999Z,3.13
2023-04-05T01:13:04.949Z,2.93
2023-04-05T01:15:32.826Z,2.80
2023-04-05T01:18:02.083Z,3.00
2023-04-05T01:20:35.002Z,3.50
2023-04-05T01:23:27.668Z,3.13
2023-04-05T01:26:39.955Z,3.00
2023-04-05T01:29:37.966Z,3.13
2023-04-05T01:32:11.663Z,2.93
2023-04-05T01:34:47.131Z,3.20
2023-04-05T01:37:17.233Z,3.57
2023-04-05T01:39:47.385Z,3.17
2023-04-05T01:42:15.033Z,2.63
2023-04-05T01:44:44.193Z,3.23
2023-04-05T01:47:11.754Z,3.57
2023-04-05T01:49:39.358Z,3.87
2023-04-05T01:52:06.934Z,3.50
2023-04-05T01:54:34.488Z,3.20
2023-04-05T01:57:02.128Z,3.70
2023-04-05T01:59:29.766Z,3.33
2023-04-05T02:01:59.003Z,3.57
2023-04-05T02:04:26.745Z,3.47
2023-04-05T02:06:54.366Z,3.70
2023-04-05T02:09:21.937Z,3.10
2023-04-05T02:11:49.549Z,3.83
2023-04-05T02:14:17.100Z,4.03
2023-04-05T02:16:44.761Z,3.73
2023-04-05T02:19:15.865Z,3.87
2023-04-05T02:21:43.572Z,3.63
2023-04-05T02:24:11.140Z,4.00
2023-04-05T02:26:38.736Z,3.50
2023-04-05T02:29:06.382Z,3.57
2023-04-05T02:31:34.149Z,3.77
2023-04-05T02:34:01.872Z,3.57
2023-04-05T02:36:30.824Z,3.73
2023-04-05T02:38:58.424Z,3.83
2023-04-05T02:41:26.015Z,3.97
2023-04-05T02:43:53.565Z,3.90
2023-04-05T02:46:21.276Z,3.70
2023-04-05T02:48:48.887Z,3.17
2023-04-05T02:51:16.473Z,3.47
2023-04-05T02:53:45.537Z,3.50
2023-04-05T02:56:14.244Z,3.47
2023-04-05T02:58:42.395Z,3.87
2023-04-05T03:01:10.132Z,4.20
2023-04-05T03:03:40.207Z,3.73
2023-04-05T03:06:10.213Z,3.57
2023-04-05T03:08:38.805Z,4.53
2023-04-05T03:11:07.880Z,4.03
2023-04-05T03:13:35.974Z,4.10
2023-04-05T03:16:03.570Z,4.07
2023-04-05T03:18:31.177Z,4.03
2023-04-05T03:20:59.183Z,3.53
2023-04-05T03:23:29.686Z,3.90
2023-04-05T03:26:00.485Z,3.93
2023-04-05T03:28:32.177Z,3.50
2023-04-05T03:31:00.209Z,3.97
2023-04-05T03:33:27.871Z,3.63
2023-04-05T03:35:55.514Z,3.40
2023-04-05T03:38:23.162Z,3.60
2023-04-05T03:40:50.797Z,3.50
2023-04-05T03:43:18.312Z,3.70
2023-04-05T03:45:47.277Z,4.07
2023-04-05T03:48:19.909Z,3.97
2023-04-05T03:50:47.533Z,3.10
2023-04-05T03:53:19.030Z,3.80
2023-04-05T03:55:50.362Z,3.93
2023-04-05T03:58:18.145Z,4.33
2023-04-05T04:00:47.224Z,3.70
2023-04-05T04:03:15.112Z,3.53
2023-04-05T04:05:43.087Z,3.93
2023-04-05T04:08:11.355Z,3.27
2023-04-05T04:10:38.934Z,3.80
2023-04-05T04:15:34.090Z,3.93
2023-04-05T04:18:03.027Z,4.03
2023-04-05T04:20:30.861Z,3.93
2023-04-05T04:22:58.903Z,3.40
2023-04-05T04:25:30.743Z,4.03
2023-04-05T04:27:59.047Z,3.57
2023-04-05T04:30:26.945Z,3.47
2023-04-05T04:32:55.227Z,3.57
2023-04-05T04:35:25.849Z,4.17
2023-04-05T04:37:57.873Z,4.17
2023-04-05T04:40:26.716Z,3.47
2023-04-05T04:42:54.647Z,3.60
2023-04-05T04:45:22.300Z,3.70
2023-04-05T04:47:52.714Z,3.67
2023-04-05T04:50:22.073Z,4.37
2023-04-05T04:52:51.046Z,3.80
2023-04-05T04:55:18.608Z,3.57
2023-04-05T04:57:46.131Z,3.90
2023-04-05T05:00:15.719Z,3.77
2023-04-05T05:02:44.255Z,4.33
2023-04-05T05:05:12.513Z,3.70
2023-04-05T05:07:41.818Z,3.40
2023-04-05T05:10:12.419Z,3.83
2023-04-05T05:15:09.146Z,3.13
2023-04-05T05:17:37.473Z,3.17
2023-04-05T05:20:11.041Z,3.67
2023-04-05T05:22:39.429Z,3.63
2023-04-05T05:25:08.658Z,3.67
2023-04-05T05:27:37.573Z,3.40
2023-04-05T05:30:05.841Z,3.70
2023-04-05T05:32:33.485Z,4.13
2023-04-05T05:35:01.114Z,3.67
2023-04-05T05:37:31.211Z,4.03
2023-04-05T05:39:58.923Z,3.80
2023-04-05T05:42:27.093Z,4.03
2023-04-05T05:44:55.982Z,3.73
2023-04-05T05:47:23.661Z,3.90
2023-04-05T05:49:51.216Z,3.80
2023-04-05T05:52:18.870Z,4.07
2023-04-05T05:54:47.131Z,4.10
2023-04-05T05:57:14.740Z,4.30
2023-04-05T05:59:42.298Z,4.43
2023-04-05T06:02:11.974Z,3.90
2023-04-05T06:04:39.717Z,3.80
2023-04-05T06:07:07.373Z,4.20
2023-04-05T06:09:35.248Z,4.10
2023-04-05T06:12:02.914Z,3.80
2023-04-05T06:14:31.140Z,4.20
2023-04-05T06:16:58.729Z,4.20
2023-04-05T06:19:27.800Z,4.63
2023-04-05T06:21:56.016Z,4.03
2023-04-05T06:24:23.582Z,4.40
2023-04-05T06:26:51.956Z,4.37
2023-04-05T06:29:19.557Z,4.07
2023-04-05T06:31:48.356Z,4.13
2023-04-05T06:34:16.047Z,4.73
2023-04-05T06:36:45.043Z,4.00
2023-04-05T06:39:12.600Z,4.40
2023-04-05T06:41:40.227Z,4.27
2023-04-05T06:44:07.827Z,4.80
2023-04-05T06:46:35.376Z,4.67
2023-04-05T06:49:04.125Z,4.50
2023-04-05T06:51:31.999Z,4.73
2023-04-05T06:54:00.886Z,4.40
2023-04-05T06:56:28.574Z,4.03
2023-04-05T06:58:58.054Z,4.47
2023-04-05T07:01:26.306Z,4.23
2023-04-05T07:03:54.281Z,4.13
2023-04-05T07:06:23.838Z,3.97
2023-04-05T07:08:52.536Z,4.00
2023-04-05T07:11:21.958Z,4.13
2023-04-05T07:13:49.616Z,4.30
2023-04-05T07:16:19.200Z,4.07
2023-04-05T07:18:46.841Z,3.87
2023-04-05T07:21:14.558Z,4.13
2023-04-05T07:23:42.127Z,3.47
2023-04-05T07:26:09.751Z,4.00
2023-04-05T07:28:38.751Z,3.70
2023-04-05T07:31:07.573Z,4.30
2023-04-05T07:33:35.293Z,3.70
2023-04-05T07:36:03.460Z,4.20
2023-04-05T07:38:31.096Z,4.57
2023-04-05T07:40:58.705Z,4.03
2023-04-05T07:43:26.805Z,3.80
2023-04-05T07:46:02.313Z,3.40
2023-04-05T07:48:30.234Z,3.90
2023-04-05T07:50:58.399Z,3.90
2023-04-05T07:53:26.156Z,4.00
2023-04-05T07:55:53.956Z,3.80
2023-04-05T07:58:22.567Z,4.00
2023-04-05T08:00:50.449Z,3.47
2023-04-05T08:03:19.440Z,4.13
2023-04-05T08:05:47.082Z,3.67
2023-04-05T08:08:14.687Z,3.63
2023-04-05T08:10:42.581Z,3.10
2023-04-05T08:13:10.422Z,3.40
2023-04-05T08:15:38.055Z,3.77
2023-04-05T08:18:05.632Z,3.27
2023-04-05T08:20:39.262Z,3.20
2023-04-05T08:23:07.808Z,3.07
2023-04-05T08:25:35.426Z,3.90
2023-04-05T08:28:02.953Z,3.47
2023-04-05T08:30:30.662Z,3.40
2023-04-05T08:32:58.235Z,3.47
2023-04-05T08:35:25.969Z,3.60
2023-04-05T08:37:54.928Z,3.50
2023-04-05T08:40:22.521Z,4.13
2023-04-05T08:42:54.305Z,3.77
2023-04-05T08:45:21.904Z,3.10
2023-04-05T08:47:50.613Z,3.37
2023-04-05T08:50:18.202Z,3.50
2023-04-05T08:52:49.777Z,3.30
2023-04-05T08:55:18.819Z,2.80
2023-04-05T08:57:55.222Z,3.40
2023-04-05T09:00:23.074Z,3.60
2023-04-05T09:02:52.325Z,3.20
2023-04-05T09:05:21.065Z,3.30
2023-04-05T09:07:48.930Z,3.03
2023-04-05T09:10:20.444Z,2.90
2023-04-05T09:12:48.632Z,3.70
2023-04-05T09:15:17.714Z,3.63
2023-04-05T09:17:45.581Z,3.57
2023-04-05T09:20:13.291Z,3.40
2023-04-05T09:22:45.313Z,3.67
2023-04-05T09:25:13.027Z,3.67
2023-04-05T09:27:57.340Z,3.10
2023-04-05T09:30:25.884Z,3.57
2023-04-05T09:32:54.939Z,2.90
2023-04-05T09:35:24.083Z,3.40
2023-04-05T09:37:54.253Z,3.47
2023-04-05T09:40:22.409Z,3.10
2023-04-05T09:42:50.795Z,3.30
2023-04-05T09:45:19.919Z,2.93
2023-04-05T09:47:56.068Z,3.50
2023-04-05T09:50:23.799Z,3.17
2023-04-05T09:52:52.441Z,3.70
2023-04-05T09:55:29.783Z,3.47
2023-04-05T09:57:57.441Z,3.20
2023-04-05T10:00:26.413Z,3.33
2023-04-05T10:02:55.184Z,3.30
2023-04-05T10:05:25.492Z,3.20
2023-04-05T10:07:53.345Z,3.17
2023-04-05T10:10:23.180Z,3.10
2023-04-05T10:12:51.390Z,3.37
2023-04-05T10:15:19.385Z,2.93
2023-04-05T10:17:51.515Z,3.10
2023-04-05T10:20:19.947Z,3.10
2023-04-05T10:23:01.935Z,3.53
2023-04-05T10:25:38.270Z,3.70
2023-04-05T10:28:06.932Z,3.70
2023-04-05T10:30:37.695Z,4.10
2023-04-05T10:33:15.603Z,3.80
2023-04-05T10:35:51.583Z,3.63
2023-04-05T10:38:24.213Z,3.90
2023-04-05T10:40:55.487Z,4.10
2023-04-05T10:43:26.169Z,4.30
2023-04-05T10:45:55.646Z,3.90
2023-04-05T10:48:38.168Z,3.60
2023-04-05T10:51:06.196Z,3.63
2023-04-05T10:53:35.241Z,4.07
2023-04-05T10:56:02.899Z,3.57
2023-04-05T10:58:31.271Z,3.70
2023-04-05T11:00:59.316Z,3.47
2023-04-05T11:03:47.394Z,3.83
2023-04-05T11:06:23.779Z,2.93
2023-04-05T11:08:55.280Z,3.17
2023-04-05T11:11:24.223Z,3.43
2023-04-05T11:13:53.863Z,3.07
2023-04-05T11:16:22.218Z,3.40
2023-04-05T11:18:53.430Z,3.33
2023-04-05T11:21:22.908Z,3.10
2023-04-05T11:24:07.014Z,3.37
2023-04-05T11:26:54.281Z,3.33
2023-04-05T11:29:50.642Z,3.30
2023-04-05T11:32:18.544Z,2.93
2023-04-05T11:34:59.803Z,3.33
2023-04-05T11:37:55.365Z,3.03
2023-04-05T11:40:28.314Z,2.80
2023-04-05T11:43:13.704Z,3.17
2023-04-05T11:45:43.379Z,3.37
2023-04-05T11:48:13.143Z,3.07
2023-04-05T11:50:43.110Z,2.90
2023-04-05T11:53:14.809Z,3.73
2023-04-05T11:55:43.797Z,3.37
2023-04-05T11:58:15.999Z,3.40
2023-04-05T12:00:44.342Z,3.20
2023-04-05T12:03:13.217Z,3.23
2023-04-05T12:05:50.700Z,3.27
2023-04-05T12:08:18.742Z,3.20
2023-04-05T12:10:46.779Z,3.40
2023-04-05T12:13:14.533Z,3.27
2023-04-05T12:15:42.437Z,3.10
2023-04-05T12:18:19.135Z,3.07
2023-04-05T12:20:47.108Z,3.07
2023-04-05T12:23:17.492Z,3.10
2023-04-05T12:25:47.653Z,3.43
2023-04-05T12:28:15.365Z,3.43
2023-04-05T12:30:52.960Z,3.13
2023-04-05T12:33:30.391Z,3.43
2023-04-05T12:35:58.374Z,3.43
2023-04-05T12:38:30.880Z,3.03
2023-04-05T12:41:00.978Z,2.93
2023-04-05T12:43:39.375Z,3.10
2023-04-05T12:46:10.334Z,2.93
2023-04-05T12:48:38.547Z,3.27
2023-04-05T12:51:15.510Z,3.07
2023-04-05T12:53:48.131Z,3.27
2023-04-05T12:56:16.681Z,3.10
2023-04-05T12:58:44.337Z,3.00
2023-04-05T13:01:12.791Z,2.93
2023-04-05T13:03:40.577Z,2.90
2023-04-05T13:06:10.172Z,3.10
2023-04-05T13:08:37.987Z,2.90
2023-04-05T13:11:07.159Z,3.17
2023-04-05T13:13:35.223Z,3.40
2023-04-05T13:16:03.008Z,2.90
2023-04-05T13:18:30.746Z,3.40
2023-04-05T13:20:58.372Z,3.00
2023-04-05T13:23:25.924Z,3.17
2023-04-05T13:25:53.595Z,3.20
2023-04-05T13:28:22.524Z,3.47
2023-04-05T13:30:51.262Z,3.00
2023-04-05T13:33:20.241Z,2.87
2023-04-05T13:35:48.147Z,3.13
2023-04-05T13:38:15.971Z,2.90
2023-04-05T13:40:43.562Z,3.27
2023-04-05T13:43:11.151Z,3.60
2023-04-05T13:45:40.589Z,3.07
2023-04-05T13:48:08.485Z,3.50
2023-04-05T13:50:36.306Z,3.17
2023-04-05T13:53:03.830Z,3.07
2023-04-05T13:55:31.587Z,3.30
2023-04-05T13:57:59.170Z,3.40
2023-04-05T14:00:26.807Z,3.70
2023-04-05T14:02:56.046Z,4.10
2023-04-05T14:05:23.803Z,3.23
2023-04-05T14:07:51.643Z,3.50
2023-04-05T14:10:21.506Z,3.53
2023-04-05T14:12:49.316Z,3.80
2023-04-05T14:15:17.132Z,3.33
2023-04-05T14:17:45.200Z,3.60
2023-04-05T14:20:14.555Z,3.43
2023-04-05T14:22:42.342Z,3.70
2023-04-05T14:25:10.744Z,3.73
2023-04-05T14:27:42.206Z,3.73
2023-04-05T14:30:11.129Z,3.83
2023-04-05T14:32:39.078Z,3.67
2023-04-05T14:35:07.616Z,3.60
2023-04-05T14:37:36.636Z,3.90
2023-04-05T14:40:04.793Z,3.93
2023-04-05T14:42:47.842Z,3.47
2023-04-05T14:45:16.700Z,3.90
2023-04-05T14:47:44.478Z,3.80
2023-04-05T14:50:12.452Z,4.47
2023-04-05T14:52:41.605Z,3.47
2023-04-05T14:55:12.378Z,3.50
2023-04-05T14:57:40.225Z,4.17
2023-04-05T15:00:09.489Z,3.53
2023-04-05T15:02:38.162Z,3.70
2023-04-05T15:05:06.830Z,3.80
2023-04-05T15:07:34.770Z,3.80
2023-04-05T15:10:04.375Z,3.40
2023-04-05T15:12:33.025Z,3.47
2023-04-05T15:15:02.115Z,3.37
2023-04-05T15:17:29.971Z,3.63
2023-04-05T15:19:57.680Z,3.47
2023-04-05T15:22:25.419Z,3.63
2023-04-05T15:24:53.137Z,3.50
2023-04-05T15:27:22.403Z,3.47
2023-04-05T15:29:50.464Z,3.03
2023-04-05T15:32:18.313Z,3.27
2023-04-05T15:34:46.117Z,3.70
2023-04-05T15:37:13.987Z,3.97
2023-04-05T15:39:41.752Z,3.40
2023-04-05T15:42:09.497Z,3.73
2023-04-05T15:44:38.928Z,3.67
2023-04-05T15:47:06.664Z,3.37
2023-04-05T15:49:34.393Z,3.50
2023-04-05T15:52:02.076Z,4.00
2023-04-05T15:54:29.806Z,3.90
2023-04-05T15:56:58.318Z,3.53
2023-04-05T15:59:26.144Z,3.50
2023-04-05T16:01:55.389Z,3.73
2023-04-05T16:04:23.264Z,3.53
2023-04-05T16:06:51.073Z,3.60
2023-04-05T16:09:18.784Z,3.63
2023-04-05T16:11:46.604Z,3.87
2023-04-05T16:14:14.451Z,3.50
2023-04-05T16:16:52.879Z,3.70
2023-04-05T16:19:26.228Z,3.33
2023-04-05T16:21:53.987Z,3.77
2023-04-05T16:24:21.698Z,2.83
2023-04-05T16:26:49.481Z,3.90
2023-04-05T16:29:17.206Z,3.77
2023-04-05T16:31:47.281Z,3.50
2023-04-05T16:34:15.531Z,3.20
2023-04-05T16:36:44.649Z,3.53
2023-04-05T16:39:12.638Z,3.40
2023-04-05T16:41:40.516Z,4.00
2023-04-05T16:44:08.627Z,3.73
2023-04-05T16:46:36.427Z,3.90
2023-04-05T16:49:04.381Z,3.53
2023-04-05T16:51:32.491Z,3.87
2023-04-05T16:54:01.674Z,3.67
2023-04-05T16:56:29.489Z,3.97
2023-04-05T16:58:57.457Z,3.87
2023-04-05T17:01:26.507Z,3.30
2023-04-05T17:03:54.274Z,3.93
2023-04-05T17:06:22.204Z,3.70
2023-04-05T17:08:49.917Z,2.90
2023-04-05T17:11:18.964Z,3.57
2023-04-05T17:13:47.303Z,3.30
2023-04-05T17:16:16.089Z,3.40
2023-04-05T17:18:43.859Z,3.50
2023-04-05T17:21:12.436Z,3.80
2023-04-05T17:23:40.684Z,4.03
2023-04-05T17:26:08.392Z,3.77
2023-04-05T17:28:37.918Z,3.83
2023-04-05T17:31:06.783Z,3.83
2023-04-05T17:33:35.011Z,3.77
2023-04-05T17:36:04.144Z,4.20
2023-04-05T17:38:31.916Z,3.90
2023-04-05T17:40:59.549Z,4.03
2023-04-05T17:43:27.434Z,4.03
2023-04-05T17:45:57.073Z,3.30
2023-04-05T17:48:27.272Z,4.00
2023-04-05T17:50:55.116Z,4.63
2023-04-05T17:53:22.878Z,5.20
2023-04-05T17:55:50.759Z,4.60
2023-04-05T17:58:19.202Z,4.90
2023-04-05T18:00:46.854Z,4.93
2023-04-05T18:03:17.901Z,5.40
2023-04-05T18:05:51.239Z,4.20
2023-04-05T18:08:19.113Z,4.43
2023-04-05T18:10:46.797Z,4.00
2023-04-05T18:13:15.720Z,4.50
2023-04-05T18:15:43.416Z,4.20
2023-04-05T18:18:11.863Z,4.83
2023-04-05T18:20:41.427Z,5.80
2023-04-05T18:23:09.252Z,5.87
2023-04-05T18:25:36.977Z,5.60
2023-04-05T18:28:15.515Z,6.17
2023-04-05T18:30:50.581Z,5.30
2023-04-05T18:33:18.623Z,4.63
2023-04-05T18:35:51.531Z,4.20
2023-04-05T18:38:19.349Z,4.03
2023-04-05T18:40:47.083Z,3.80
2023-04-05T18:43:15.127Z,4.43
2023-04-05T18:45:42.872Z,4.40
2023-04-05T18:48:12.000Z,4.30
2023-04-05T18:50:40.118Z,4.23
2023-04-05T18:53:09.553Z,4.20
2023-04-05T18:55:37.918Z,4.50
2023-04-05T18:58:05.984Z,4.37
2023-04-05T19:00:34.897Z,4.30
2023-04-05T19:03:02.820Z,3.83
2023-04-05T19:05:30.572Z,4.07
2023-04-05T19:07:58.396Z,4.43
2023-04-05T19:10:27.553Z,4.27
2023-04-05T19:12:55.534Z,4.27
2023-04-05T19:15:23.179Z,4.30
2023-04-05T19:17:51.157Z,4.13
2023-04-05T19:20:19.059Z,4.27
2023-04-05T19:22:46.727Z,4.13
2023-04-05T19:25:14.943Z,4.13
2023-04-05T19:27:44.020Z,4.50
2023-04-05T19:30:12.413Z,3.60
2023-04-05T19:32:40.308Z,4.23
2023-04-05T19:35:09.845Z,4.47
2023-04-05T19:37:37.527Z,4.07
2023-04-05T19:40:06.299Z,4.80
2023-04-05T19:42:34.061Z,4.40
2023-04-05T19:45:03.228Z,4.50
2023-04-05T19:47:31.378Z,4.40
2023-04-05T19:50:00.565Z,4.17
2023-04-05T19:52:40.823Z,4.53
2023-04-05T19:55:29.692Z,5.00
2023-04-05T19:57:58.088Z,4.57
2023-04-05T20:00:37.518Z,4.57
2023-04-05T20:03:18.944Z,4.33
2023-04-05T20:05:59.870Z,4.70
2023-04-05T20:08:28.205Z,4.30
2023-04-05T20:10:56.787Z,4.27
2023-04-05T20:13:24.543Z,4.43
2023-04-05T20:15:54.131Z,4.87
2023-04-05T20:18:23.691Z,4.27
2023-04-05T20:20:53.139Z,4.13
2023-04-05T20:23:22.695Z,4.63
2023-04-05T20:25:51.599Z,4.53
2023-04-05T20:28:34.737Z,4.50
2023-04-05T20:31:03.957Z,4.73
2023-04-05T20:33:46.518Z,4.87
2023-04-05T20:36:15.435Z,4.37
2023-04-05T20:38:44.834Z,4.43
2023-04-05T20:41:13.130Z,4.47
2023-04-05T20:43:41.759Z,5.07
2023-04-05T20:46:11.463Z,5.20
2023-04-05T20:48:39.400Z,5.23
2023-04-05T20:51:08.217Z,5.20
2023-04-05T20:53:37.214Z,4.50
2023-04-05T20:56:05.944Z,4.63
2023-04-05T20:58:33.754Z,4.27
2023-04-05T21:01:03.447Z,4.80
2023-04-05T21:03:33.553Z,4.97
2023-04-05T21:06:02.060Z,4.50
2023-04-05T21:08:30.717Z,4.70
2023-04-05T21:10:59.061Z,5.07
2023-04-05T21:13:26.989Z,4.47
2023-04-05T21:15:55.485Z,5.23
2023-04-05T21:18:23.722Z,4.77
2023-04-05T21:20:54.176Z,5.40
2023-04-05T21:23:23.687Z,5.50
2023-04-05T21:25:55.128Z,5.00
2023-04-05T21:28:24.992Z,6.53
2023-04-05T21:30:53.622Z,5.60
2023-04-05T21:33:21.387Z,5.57
2023-04-05T21:35:49.213Z,6.03
2023-04-05T21:38:18.489Z,5.90
2023-04-05T21:40:46.265Z,5.80
2023-04-05T21:43:14.093Z,5.20
2023-04-05T21:45:41.741Z,5.90
2023-04-05T21:48:09.742Z,5.80
2023-04-05T21:50:37.590Z,5.17
2023-04-05T21:53:07.324Z,6.03
2023-04-05T21:55:36.785Z,5.33
2023-04-05T21:58:04.649Z,4.97
2023-04-05T22:00:32.370Z,5.67
2023-04-05T22:03:00.176Z,5.40
2023-04-05T22:05:37.916Z,5.30
2023-04-05T22:08:07.412Z,5.93
2023-04-05T22:10:37.507Z,5.87
2023-04-05T22:13:05.359Z,5.53
2023-04-05T22:15:33.026Z,5.67
2023-04-05T22:18:00.905Z,4.87
2023-04-05T22:20:28.767Z,5.20
2023-04-05T22:22:56.514Z,5.60
2023-04-05T22:25:26.321Z,6.40
2023-04-05T22:27:59.640Z,5.90
2023-04-05T22:30:28.239Z,5.90
2023-04-05T22:32:56.597Z,6.23
2023-04-05T22:35:24.511Z,5.03
2023-04-05T22:37:52.265Z,4.77
2023-04-05T22:40:19.956Z,4.87
2023-04-05T22:42:47.590Z,5.50
2023-04-05T22:45:16.829Z,5.80
2023-04-05T22:47:44.564Z,5.80
2023-04-05T22:50:12.469Z,5.30
2023-04-05T22:52:40.282Z,5.57
2023-04-05T22:55:09.450Z,5.43
2023-04-05T22:57:37.226Z,5.53
2023-04-05T23:00:05.584Z,5.70
2023-04-05T23:02:34.630Z,5.33
2023-04-05T23:05:02.447Z,5.00
2023-04-05T23:07:30.182Z,5.37
2023-04-05T23:09:57.857Z,19.00
2023-04-05T23:12:25.625Z,7.53
2023-04-05T23:14:53.316Z,5.53
2023-04-05T23:17:21.449Z,5.47
2023-04-05T23:19:50.462Z,5.23
2023-04-05T23:22:18.184Z,5.30
2023-04-05T23:24:45.879Z,5.57
2023-04-05T23:27:13.562Z,5.30
2023-04-05T23:29:41.332Z,5.23
2023-04-05T23:32:12.608Z,5.70
2023-04-05T23:34:40.461Z,5.70
2023-04-05T23:37:09.516Z,4.87
2023-04-05T23:39:37.266Z,5.57
2023-04-05T23:42:05.388Z,5.20
2023-04-05T23:44:33.182Z,5.13
2023-04-05T23:47:01.162Z,5.07
2023-04-05T23:49:28.981Z,5.10
2023-04-05T23:51:56.615Z,5.57
2023-04-05T23:54:25.944Z,5.77
2023-04-05T23:56:53.856Z,6.50
2023-04-05T23:59:21.616Z,5.97
